Terminal Aerodrome Forecast
Issued by NWS

Home | Current Version | Previous Version | Text Only | Print | Product List | Glossary On
Versions: 1 2 3 4 5 6 7 8 9 10 11 12 13 14 15
000
FTUS46 KSEW 301100
TAFBLI
TAF
KBLI 301136Z 3012/3112 00000KT P6SM BCFG SCT250
     FM301600 VRB03KT P6SM SCT250
     FM302100 24004KT P6SM SKC=

USA.gov is the U.S. government's official web portal to all federal, state and local government web resources and services.